sensor_id;sensor_type;location;lat;lon;timestamp;temperature;humidity
19999;DHT22;10160;50.926;4.374;2024-01-11T00:02:24;-0.70;99.90
19999;DHT22;10160;50.926;4.374;2024-01-11T00:04:50;-0.70;99.90
19999;DHT22;10160;50.926;4.374;2024-01-11T00:07:15;-0.90;99.90
19999;DHT22;10160;50.926;4.374;2024-01-11T00:09:44;-0.90;99.90
19999;DHT22;10160;50.926;4.374;2024-01-11T00:12:10;-0.80;99.90
19999;DHT22;10160;50.926;4.374;2024-01-11T00:14:35;-0.80;99.90
19999;DHT22;10160;50.926;4.374;2024-01-11T00:17:01;-0.70;99.90
19999;DHT22;10160;50.926;4.374;2024-01-11T00:19:27;-0.80;99.90
19999;DHT22;10160;50.926;4.374;2024-01-11T00:21:53;-0.80;99.90
19999;DHT22;10160;50.926;4.374;2024-01-11T00:24:18;-0.90;99.90
19999;DHT22;10160;50.926;4.374;2024-01-11T00:26:44;-0.90;99.90
19999;DHT22;10160;50.926;4.374;2024-01-11T00:29:10;-0.90;99.90
19999;DHT22;10160;50.926;4.374;2024-01-11T00:31:36;-0.90;99.90
19999;DHT22;10160;50.926;4.374;2024-01-11T00:34:02;-0.80;99.90
19999;DHT22;10160;50.926;4.374;2024-01-11T00:36:28;-0.90;99.90
19999;DHT22;10160;50.926;4.374;2024-01-11T00:38:54;-0.90;99.90
19999;DHT22;10160;50.926;4.374;2024-01-11T00:41:19;-1.00;99.90
19999;DHT22;10160;50.926;4.374;2024-01-11T00:43:45;-1.00;99.90
19999;DHT22;10160;50.926;4.374;2024-01-11T00:46:11;-1.10;99.90
19999;DHT22;10160;50.926;4.374;2024-01-11T00:48:37;-1.10;99.90
19999;DHT22;10160;50.926;4.374;2024-01-11T00:51:04;-1.00;99.90
19999;DHT22;10160;50.926;4.374;2024-01-11T00:53:30;-1.00;99.90
19999;DHT22;10160;50.926;4.374;2024-01-11T00:56:00;-0.90;99.90
19999;DHT22;10160;50.926;4.374;2024-01-11T00:58:25;-0.90;99.90
19999;DHT22;10160;50.926;4.374;2024-01-11T01:00:52;-1.00;99.90
19999;DHT22;10160;50.926;4.374;2024-01-11T01:03:21;-1.10;99.90
19999;DHT22;10160;50.926;4.374;2024-01-11T01:05:47;-1.30;99.90
19999;DHT22;10160;50.926;4.374;2024-01-11T01:08:15;-1.10;99.90
19999;DHT22;10160;50.926;4.374;2024-01-11T01:10:41;-1.20;99.90
19999;DHT22;10160;50.926;4.374;2024-01-11T01:13:07;-1.20;99.90
19999;DHT22;10160;50.926;4.374;2024-01-11T01:15:32;-1.30;99.90
19999;DHT22;10160;50.926;4.374;2024-01-11T01:17:58;-1.40;99.90
19999;DHT22;10160;50.926;4.374;2024-01-11T01:20:29;-1.30;99.90
19999;DHT22;10160;50.926;4.374;2024-01-11T01:22:55;-1.30;99.90
19999;DHT22;10160;50.926;4.374;2024-01-11T01:25:21;-1.10;99.90
19999;DHT22;10160;50.926;4.374;2024-01-11T01:27:46;-1.20;99.90
19999;DHT22;10160;50.926;4.374;2024-01-11T01:30:12;-1.20;99.90
19999;DHT22;10160;50.926;4.374;2024-01-11T01:32:38;-1.20;99.90
19999;DHT22;10160;50.926;4.374;2024-01-11T01:35:03;-1.30;99.90
19999;DHT22;10160;50.926;4.374;2024-01-11T01:37:29;-1.20;99.90
19999;DHT22;10160;50.926;4.374;2024-01-11T01:39:55;-1.20;99.90
19999;DHT22;10160;50.926;4.374;2024-01-11T01:42:21;-1.20;99.90
19999;DHT22;10160;50.926;4.374;2024-01-11T01:44:46;-1.40;99.90
19999;DHT22;10160;50.926;4.374;2024-01-11T01:47:12;-1.40;99.90
19999;DHT22;10160;50.926;4.374;2024-01-11T01:49:38;-1.30;99.90
19999;DHT22;10160;50.926;4.374;2024-01-11T01:52:05;-1.30;99.90
19999;DHT22;10160;50.926;4.374;2024-01-11T01:54:32;-1.30;99.90
19999;DHT22;10160;50.926;4.374;2024-01-11T01:56:58;-1.30;99.90
19999;DHT22;10160;50.926;4.374;2024-01-11T01:59:26;-1.30;99.90
19999;DHT22;10160;50.926;4.374;2024-01-11T02:01:52;-1.30;99.90
19999;DHT22;10160;50.926;4.374;2024-01-11T02:04:19;-1.30;99.90
19999;DHT22;10160;50.926;4.374;2024-01-11T02:06:45;-1.30;99.90
19999;DHT22;10160;50.926;4.374;2024-01-11T02:09:13;-1.40;99.90
19999;DHT22;10160;50.926;4.374;2024-01-11T02:11:39;-1.30;99.90
19999;DHT22;10160;50.926;4.374;2024-01-11T02:14:07;-1.30;99.90
19999;DHT22;10160;50.926;4.374;2024-01-11T02:16:32;-1.30;99.90
19999;DHT22;10160;50.926;4.374;2024-01-11T02:19:01;-1.40;99.90
19999;DHT22;10160;50.926;4.374;2024-01-11T02:21:27;-1.50;99.90
19999;DHT22;10160;50.926;4.374;2024-01-11T02:24:13;-1.50;99.90
19999;DHT22;10160;50.926;4.374;2024-01-11T02:27:01;-1.60;99.90
19999;DHT22;10160;50.926;4.374;2024-01-11T02:29:28;-1.60;99.90
19999;DHT22;10160;50.926;4.374;2024-01-11T02:31:55;-1.70;99.90
19999;DHT22;10160;50.926;4.374;2024-01-11T02:34:23;-1.60;99.90
19999;DHT22;10160;50.926;4.374;2024-01-11T02:36:49;-1.60;99.90
19999;DHT22;10160;50.926;4.374;2024-01-11T02:39:16;-1.60;99.90
19999;DHT22;10160;50.926;4.374;2024-01-11T02:41:44;-1.60;99.90
19999;DHT22;10160;50.926;4.374;2024-01-11T02:44:10;-1.70;99.90
19999;DHT22;10160;50.926;4.374;2024-01-11T02:46:38;-1.70;99.90
19999;DHT22;10160;50.926;4.374;2024-01-11T02:49:04;-1.70;99.90
19999;DHT22;10160;50.926;4.374;2024-01-11T02:51:30;-1.60;99.90
19999;DHT22;10160;50.926;4.374;2024-01-11T02:53:55;-1.60;99.90
19999;DHT22;10160;50.926;4.374;2024-01-11T02:56:21;-1.70;99.90
19999;DHT22;10160;50.926;4.374;2024-01-11T02:58:46;-1.60;99.90
19999;DHT22;10160;50.926;4.374;2024-01-11T03:01:12;-1.60;99.90
19999;DHT22;10160;50.926;4.374;2024-01-11T03:03:38;-1.60;99.90
19999;DHT22;10160;50.926;4.374;2024-01-11T03:06:03;-1.60;99.90
19999;DHT22;10160;50.926;4.374;2024-01-11T03:08:29;-1.60;99.90
19999;DHT22;10160;50.926;4.374;2024-01-11T03:10:55;-1.60;99.90
19999;DHT22;10160;50.926;4.374;2024-01-11T03:13:21;-1.70;99.90
19999;DHT22;10160;50.926;4.374;2024-01-11T03:15:46;-1.70;99.90
19999;DHT22;10160;50.926;4.374;2024-01-11T03:18:12;-1.80;99.90
19999;DHT22;10160;50.926;4.374;2024-01-11T03:20:40;-1.70;99.90
19999;DHT22;10160;50.926;4.374;2024-01-11T03:23:06;-1.90;99.90
19999;DHT22;10160;50.926;4.374;2024-01-11T03:25:32;-1.80;99.90
19999;DHT22;10160;50.926;4.374;2024-01-11T03:27:58;-1.70;99.90
19999;DHT22;10160;50.926;4.374;2024-01-11T03:30:24;-1.60;99.90
19999;DHT22;10160;50.926;4.374;2024-01-11T03:32:50;-1.50;99.90
19999;DHT22;10160;50.926;4.374;2024-01-11T03:35:16;-1.50;99.90
19999;DHT22;10160;50.926;4.374;2024-01-11T03:37:41;-1.50;99.90
19999;DHT22;10160;50.926;4.374;2024-01-11T03:40:07;-1.40;99.90
19999;DHT22;10160;50.926;4.374;2024-01-11T03:42:33;-1.30;99.90
19999;DHT22;10160;50.926;4.374;2024-01-11T03:44:58;-1.40;99.90
19999;DHT22;10160;50.926;4.374;2024-01-11T03:47:24;-1.50;99.90
19999;DHT22;10160;50.926;4.374;2024-01-11T03:49:50;-1.50;99.90
19999;DHT22;10160;50.926;4.374;2024-01-11T03:52:15;-1.40;99.90
19999;DHT22;10160;50.926;4.374;2024-01-11T03:54:41;-1.50;99.90
19999;DHT22;10160;50.926;4.374;2024-01-11T03:57:06;-1.60;99.90
19999;DHT22;10160;50.926;4.374;2024-01-11T03:59:32;-1.60;99.90
19999;DHT22;10160;50.926;4.374;2024-01-11T04:01:58;-1.60;99.90
19999;DHT22;10160;50.926;4.374;2024-01-11T04:04:24;-1.50;99.90
19999;DHT22;10160;50.926;4.374;2024-01-11T04:06:51;-1.60;99.90
19999;DHT22;10160;50.926;4.374;2024-01-11T04:09:17;-1.70;99.90
19999;DHT22;10160;50.926;4.374;2024-01-11T04:11:43;-1.70;99.90
19999;DHT22;10160;50.926;4.374;2024-01-11T04:14:09;-2.00;99.90
19999;DHT22;10160;50.926;4.374;2024-01-11T04:16:40;-2.00;99.90
19999;DHT22;10160;50.926;4.374;2024-01-11T04:19:05;-2.00;99.90
19999;DHT22;10160;50.926;4.374;2024-01-11T04:21:31;-2.00;99.90
19999;DHT22;10160;50.926;4.374;2024-01-11T04:23:57;-1.90;99.90
19999;DHT22;10160;50.926;4.374;2024-01-11T04:26:23;-1.90;99.90
19999;DHT22;10160;50.926;4.374;2024-01-11T04:28:52;-1.80;99.90
19999;DHT22;10160;50.926;4.374;2024-01-11T04:31:18;-1.70;99.90
19999;DHT22;10160;50.926;4.374;2024-01-11T04:33:45;-1.60;99.90
19999;DHT22;10160;50.926;4.374;2024-01-11T04:36:12;-1.60;99.90
19999;DHT22;10160;50.926;4.374;2024-01-11T04:38:38;-1.80;99.90
19999;DHT22;10160;50.926;4.374;2024-01-11T04:41:08;-1.90;99.90
19999;DHT22;10160;50.926;4.374;2024-01-11T04:43:38;-2.00;99.90
19999;DHT22;10160;50.926;4.374;2024-01-11T04:46:22;-1.90;99.90
19999;DHT22;10160;50.926;4.374;2024-01-11T04:48:49;-1.90;99.90
19999;DHT22;10160;50.926;4.374;2024-01-11T04:51:15;-2.00;99.90
19999;DHT22;10160;50.926;4.374;2024-01-11T04:53:42;-2.30;99.90
19999;DHT22;10160;50.926;4.374;2024-01-11T04:56:09;-2.20;99.90
19999;DHT22;10160;50.926;4.374;2024-01-11T04:58:36;-2.20;99.90
19999;DHT22;10160;50.926;4.374;2024-01-11T05:01:05;-2.00;99.90
19999;DHT22;10160;50.926;4.374;2024-01-11T05:03:31;-2.10;99.90
19999;DHT22;10160;50.926;4.374;2024-01-11T05:06:00;-2.20;99.90
19999;DHT22;10160;50.926;4.374;2024-01-11T05:08:26;-2.10;99.90
19999;DHT22;10160;50.926;4.374;2024-01-11T05:10:53;-2.10;99.90
19999;DHT22;10160;50.926;4.374;2024-01-11T05:13:19;-2.20;99.90
19999;DHT22;10160;50.926;4.374;2024-01-11T05:15:45;-2.20;99.90
19999;DHT22;10160;50.926;4.374;2024-01-11T05:18:11;-2.20;99.90
19999;DHT22;10160;50.926;4.374;2024-01-11T05:20:37;-2.20;99.90
19999;DHT22;10160;50.926;4.374;2024-01-11T05:23:03;-2.10;99.90
19999;DHT22;10160;50.926;4.374;2024-01-11T05:25:30;-2.30;99.90
19999;DHT22;10160;50.926;4.374;2024-01-11T05:27:59;-2.30;99.90
19999;DHT22;10160;50.926;4.374;2024-01-11T05:30:25;-2.10;99.90
19999;DHT22;10160;50.926;4.374;2024-01-11T05:32:51;-2.00;99.90
19999;DHT22;10160;50.926;4.374;2024-01-11T05:35:16;-2.10;99.90
19999;DHT22;10160;50.926;4.374;2024-01-11T05:37:42;-2.10;99.90
19999;DHT22;10160;50.926;4.374;2024-01-11T05:40:08;-2.10;99.90
19999;DHT22;10160;50.926;4.374;2024-01-11T05:42:33;-2.10;99.90
19999;DHT22;10160;50.926;4.374;2024-01-11T05:44:59;-2.10;99.90
19999;DHT22;10160;50.926;4.374;2024-01-11T05:47:25;-2.10;99.90
19999;DHT22;10160;50.926;4.374;2024-01-11T05:49:50;-2.00;99.90
19999;DHT22;10160;50.926;4.374;2024-01-11T05:52:16;-2.10;99.90
19999;DHT22;10160;50.926;4.374;2024-01-11T05:54:42;-2.20;99.90
19999;DHT22;10160;50.926;4.374;2024-01-11T05:57:07;-2.30;99.90
19999;DHT22;10160;50.926;4.374;2024-01-11T05:59:33;-2.30;99.90
19999;DHT22;10160;50.926;4.374;2024-01-11T06:01:59;-2.30;99.90
19999;DHT22;10160;50.926;4.374;2024-01-11T06:04:27;-2.20;99.90
19999;DHT22;10160;50.926;4.374;2024-01-11T06:06:52;-2.30;99.90
19999;DHT22;10160;50.926;4.374;2024-01-11T06:09:18;-2.20;99.90
19999;DHT22;10160;50.926;4.374;2024-01-11T06:11:44;-2.10;99.90
19999;DHT22;10160;50.926;4.374;2024-01-11T06:14:09;-2.30;99.90
19999;DHT22;10160;50.926;4.374;2024-01-11T06:16:35;-2.20;99.90
19999;DHT22;10160;50.926;4.374;2024-01-11T06:19:01;-2.30;99.90
19999;DHT22;10160;50.926;4.374;2024-01-11T06:21:27;-2.30;99.90
19999;DHT22;10160;50.926;4.374;2024-01-11T06:23:53;-2.40;99.90
19999;DHT22;10160;50.926;4.374;2024-01-11T06:26:19;-2.50;99.90
19999;DHT22;10160;50.926;4.374;2024-01-11T06:28:45;-2.40;99.90
19999;DHT22;10160;50.926;4.374;2024-01-11T06:31:10;-2.60;99.90
19999;DHT22;10160;50.926;4.374;2024-01-11T06:33:37;-2.50;99.90
19999;DHT22;10160;50.926;4.374;2024-01-11T06:36:05;-2.40;99.90
19999;DHT22;10160;50.926;4.374;2024-01-11T06:38:31;-2.40;99.90
19999;DHT22;10160;50.926;4.374;2024-01-11T06:40:57;-2.40;99.90
19999;DHT22;10160;50.926;4.374;2024-01-11T06:43:22;-2.50;99.90
19999;DHT22;10160;50.926;4.374;2024-01-11T06:45:48;-2.60;99.90
19999;DHT22;10160;50.926;4.374;2024-01-11T06:48:14;-2.70;99.90
19999;DHT22;10160;50.926;4.374;2024-01-11T06:50:39;-2.70;99.90
19999;DHT22;10160;50.926;4.374;2024-01-11T06:53:05;-2.60;99.90
19999;DHT22;10160;50.926;4.374;2024-01-11T06:55:31;-2.60;99.90
19999;DHT22;10160;50.926;4.374;2024-01-11T06:57:56;-2.50;99.90
19999;DHT22;10160;50.926;4.374;2024-01-11T07:00:23;-2.60;99.90
19999;DHT22;10160;50.926;4.374;2024-01-11T07:02:49;-2.70;99.90
19999;DHT22;10160;50.926;4.374;2024-01-11T07:05:14;-2.60;99.90
19999;DHT22;10160;50.926;4.374;2024-01-11T07:07:40;-2.60;99.90
19999;DHT22;10160;50.926;4.374;2024-01-11T07:10:09;-2.60;99.90
19999;DHT22;10160;50.926;4.374;2024-01-11T07:12:34;-2.30;99.90
19999;DHT22;10160;50.926;4.374;2024-01-11T07:15:00;-2.50;99.90
19999;DHT22;10160;50.926;4.374;2024-01-11T07:17:26;-2.60;99.90
19999;DHT22;10160;50.926;4.374;2024-01-11T07:19:51;-2.70;99.90
19999;DHT22;10160;50.926;4.374;2024-01-11T07:22:17;-2.60;99.90
19999;DHT22;10160;50.926;4.374;2024-01-11T07:24:43;-2.60;99.90
19999;DHT22;10160;50.926;4.374;2024-01-11T07:27:08;-2.60;99.90
19999;DHT22;10160;50.926;4.374;2024-01-11T07:29:34;-2.60;99.90
19999;DHT22;10160;50.926;4.374;2024-01-11T07:32:00;-2.30;99.90
19999;DHT22;10160;50.926;4.374;2024-01-11T07:34:29;-2.40;99.90
19999;DHT22;10160;50.926;4.374;2024-01-11T07:36:57;-2.60;99.90
19999;DHT22;10160;50.926;4.374;2024-01-11T07:39:29;-2.60;99.90
19999;DHT22;10160;50.926;4.374;2024-01-11T07:41:56;-2.60;99.90
19999;DHT22;10160;50.926;4.374;2024-01-11T07:44:22;-2.60;99.90
19999;DHT22;10160;50.926;4.374;2024-01-11T07:46:47;-2.50;99.90
19999;DHT22;10160;50.926;4.374;2024-01-11T07:49:13;-2.50;99.90
19999;DHT22;10160;50.926;4.374;2024-01-11T07:51:39;-2.30;99.90
19999;DHT22;10160;50.926;4.374;2024-01-11T07:54:04;-2.40;99.90
19999;DHT22;10160;50.926;4.374;2024-01-11T07:56:30;-2.40;99.90
19999;DHT22;10160;50.926;4.374;2024-01-11T07:58:56;-2.50;99.90
19999;DHT22;10160;50.926;4.374;2024-01-11T08:01:22;-2.60;99.90
19999;DHT22;10160;50.926;4.374;2024-01-11T08:03:47;-2.50;99.90
19999;DHT22;10160;50.926;4.374;2024-01-11T08:06:13;-2.40;99.90
19999;DHT22;10160;50.926;4.374;2024-01-11T08:08:39;-2.30;99.90
19999;DHT22;10160;50.926;4.374;2024-01-11T08:11:06;-2.20;99.90
19999;DHT22;10160;50.926;4.374;2024-01-11T08:13:32;-2.00;99.90
19999;DHT22;10160;50.926;4.374;2024-01-11T08:16:00;-1.90;99.90
19999;DHT22;10160;50.926;4.374;2024-01-11T08:18:26;-1.90;99.90
19999;DHT22;10160;50.926;4.374;2024-01-11T08:20:52;-1.90;99.90
19999;DHT22;10160;50.926;4.374;2024-01-11T08:23:18;-1.90;99.90
19999;DHT22;10160;50.926;4.374;2024-01-11T08:25:43;-2.00;99.90
19999;DHT22;10160;50.926;4.374;2024-01-11T08:28:09;-2.00;99.90
19999;DHT22;10160;50.926;4.374;2024-01-11T08:30:38;-2.00;99.90
19999;DHT22;10160;50.926;4.374;2024-01-11T08:33:03;-1.80;99.90
19999;DHT22;10160;50.926;4.374;2024-01-11T08:35:29;-1.60;99.90
19999;DHT22;10160;50.926;4.374;2024-01-11T08:37:57;-1.60;99.90
19999;DHT22;10160;50.926;4.374;2024-01-11T08:40:23;-1.40;99.90
19999;DHT22;10160;50.926;4.374;2024-01-11T08:42:48;-1.40;99.90
19999;DHT22;10160;50.926;4.374;2024-01-11T08:45:14;-1.30;99.90
19999;DHT22;10160;50.926;4.374;2024-01-11T08:47:44;-1.30;99.90
19999;DHT22;10160;50.926;4.374;2024-01-11T08:50:15;-1.10;99.90
19999;DHT22;10160;50.926;4.374;2024-01-11T08:52:42;-1.00;99.90
19999;DHT22;10160;50.926;4.374;2024-01-11T08:55:08;-0.80;99.90
19999;DHT22;10160;50.926;4.374;2024-01-11T08:57:34;-0.70;99.90
19999;DHT22;10160;50.926;4.374;2024-01-11T09:00:02;-0.30;99.90
19999;DHT22;10160;50.926;4.374;2024-01-11T09:02:29;0.10;99.90
19999;DHT22;10160;50.926;4.374;2024-01-11T09:04:54;0.70;99.90
19999;DHT22;10160;50.926;4.374;2024-01-11T09:07:20;1.10;99.90
19999;DHT22;10160;50.926;4.374;2024-01-11T09:09:49;1.30;99.90
19999;DHT22;10160;50.926;4.374;2024-01-11T09:12:14;1.30;99.90
19999;DHT22;10160;50.926;4.374;2024-01-11T09:14:40;1.80;99.90
19999;DHT22;10160;50.926;4.374;2024-01-11T09:17:09;2.20;99.90
19999;DHT22;10160;50.926;4.374;2024-01-11T09:19:34;2.50;99.90
19999;DHT22;10160;50.926;4.374;2024-01-11T09:22:00;2.40;99.90
19999;DHT22;10160;50.926;4.374;2024-01-11T09:24:26;2.30;99.90
19999;DHT22;10160;50.926;4.374;2024-01-11T09:26:52;2.30;99.90
19999;DHT22;10160;50.926;4.374;2024-01-11T09:29:17;2.50;99.90
19999;DHT22;10160;50.926;4.374;2024-01-11T09:31:43;2.50;99.90
19999;DHT22;10160;50.926;4.374;2024-01-11T09:34:10;2.60;99.90
19999;DHT22;10160;50.926;4.374;2024-01-11T09:36:36;2.70;99.90
19999;DHT22;10160;50.926;4.374;2024-01-11T09:39:04;2.70;99.90
19999;DHT22;10160;50.926;4.374;2024-01-11T09:41:31;2.70;99.90
19999;DHT22;10160;50.926;4.374;2024-01-11T09:44:00;3.10;99.90
19999;DHT22;10160;50.926;4.374;2024-01-11T09:46:26;3.60;99.90
19999;DHT22;10160;50.926;4.374;2024-01-11T09:48:54;4.50;99.90
19999;DHT22;10160;50.926;4.374;2024-01-11T09:51:20;6.10;99.90
19999;DHT22;10160;50.926;4.374;2024-01-11T09:53:47;7.70;99.90
19999;DHT22;10160;50.926;4.374;2024-01-11T09:56:16;8.70;99.90
19999;DHT22;10160;50.926;4.374;2024-01-11T09:58:46;9.20;99.90
19999;DHT22;10160;50.926;4.374;2024-01-11T10:01:15;9.30;99.90
19999;DHT22;10160;50.926;4.374;2024-01-11T10:03:43;8.90;99.90
19999;DHT22;10160;50.926;4.374;2024-01-11T10:06:10;8.40;99.90
19999;DHT22;10160;50.926;4.374;2024-01-11T10:08:36;8.00;99.90
19999;DHT22;10160;50.926;4.374;2024-01-11T10:11:02;7.80;99.90
19999;DHT22;10160;50.926;4.374;2024-01-11T10:13:31;7.80;99.90
19999;DHT22;10160;50.926;4.374;2024-01-11T10:16:10;8.10;99.90
19999;DHT22;10160;50.926;4.374;2024-01-11T10:18:39;8.60;99.90
19999;DHT22;10160;50.926;4.374;2024-01-11T10:21:05;9.40;99.90
19999;DHT22;10160;50.926;4.374;2024-01-11T10:23:33;10.00;99.10
19999;DHT22;10160;50.926;4.374;2024-01-11T10:26:00;10.20;98.60
19999;DHT22;10160;50.926;4.374;2024-01-11T10:28:29;10.70;98.00
19999;DHT22;10160;50.926;4.374;2024-01-11T10:30:55;11.10;96.10
19999;DHT22;10160;50.926;4.374;2024-01-11T10:33:21;11.40;94.70
19999;DHT22;10160;50.926;4.374;2024-01-11T10:35:48;12.00;94.20
19999;DHT22;10160;50.926;4.374;2024-01-11T10:38:18;12.90;92.70
19999;DHT22;10160;50.926;4.374;2024-01-11T10:40:45;13.50;90.40
19999;DHT22;10160;50.926;4.374;2024-01-11T10:43:11;14.30;87.10
19999;DHT22;10160;50.926;4.374;2024-01-11T10:45:38;15.10;82.00
19999;DHT22;10160;50.926;4.374;2024-01-11T10:50:36;16.80;73.60
19999;DHT22;10160;50.926;4.374;2024-01-11T10:55:37;18.30;65.20
19999;DHT22;10160;50.926;4.374;2024-01-11T10:58:03;18.90;61.20
19999;DHT22;10160;50.926;4.374;2024-01-11T11:00:31;19.20;57.90
19999;DHT22;10160;50.926;4.374;2024-01-11T11:02:59;19.70;56.60
19999;DHT22;10160;50.926;4.374;2024-01-11T11:05:31;20.10;54.60
19999;DHT22;10160;50.926;4.374;2024-01-11T11:07:58;20.80;52.60
19999;DHT22;10160;50.926;4.374;2024-01-11T11:10:28;21.20;50.60
19999;DHT22;10160;50.926;4.374;2024-01-11T11:12:54;21.30;48.60
19999;DHT22;10160;50.926;4.374;2024-01-11T11:15:24;21.50;48.40
19999;DHT22;10160;50.926;4.374;2024-01-11T11:17:49;21.90;47.90
19999;DHT22;10160;50.926;4.374;2024-01-11T11:20:16;22.40;47.10
19999;DHT22;10160;50.926;4.374;2024-01-11T11:22:43;22.60;44.50
19999;DHT22;10160;50.926;4.374;2024-01-11T11:25:24;22.40;43.70
19999;DHT22;10160;50.926;4.374;2024-01-11T11:27:51;22.60;42.60
19999;DHT22;10160;50.926;4.374;2024-01-11T11:30:19;22.70;42.00
19999;DHT22;10160;50.926;4.374;2024-01-11T11:32:45;22.90;41.90
19999;DHT22;10160;50.926;4.374;2024-01-11T11:35:14;23.20;41.40
19999;DHT22;10160;50.926;4.374;2024-01-11T11:37:40;23.30;40.40
19999;DHT22;10160;50.926;4.374;2024-01-11T11:40:09;23.20;39.40
19999;DHT22;10160;50.926;4.374;2024-01-11T11:42:39;23.30;39.50
19999;DHT22;10160;50.926;4.374;2024-01-11T11:45:07;23.50;39.30
19999;DHT22;10160;50.926;4.374;2024-01-11T11:47:36;23.70;39.10
19999;DHT22;10160;50.926;4.374;2024-01-11T11:50:09;23.70;38.10
19999;DHT22;10160;50.926;4.374;2024-01-11T11:52:39;23.70;38.00
19999;DHT22;10160;50.926;4.374;2024-01-11T11:55:07;23.70;37.60
19999;DHT22;10160;50.926;4.374;2024-01-11T11:57:34;23.70;37.30
19999;DHT22;10160;50.926;4.374;2024-01-11T12:00:00;24.00;37.40
19999;DHT22;10160;50.926;4.374;2024-01-11T12:02:32;23.80;37.10
19999;DHT22;10160;50.926;4.374;2024-01-11T12:04:58;22.90;37.00
19999;DHT22;10160;50.926;4.374;2024-01-11T12:07:24;22.90;37.00
19999;DHT22;10160;50.926;4.374;2024-01-11T12:09:51;22.50;37.20
19999;DHT22;10160;50.926;4.374;2024-01-11T12:12:18;22.90;37.20
19999;DHT22;10160;50.926;4.374;2024-01-11T12:14:48;23.20;37.00
19999;DHT22;10160;50.926;4.374;2024-01-11T12:17:15;23.40;36.50
19999;DHT22;10160;50.926;4.374;2024-01-11T12:19:43;23.70;36.30
19999;DHT22;10160;50.926;4.374;2024-01-11T12:22:09;23.90;35.90
19999;DHT22;10160;50.926;4.374;2024-01-11T12:24:35;23.60;35.40
19999;DHT22;10160;50.926;4.374;2024-01-11T12:27:01;23.70;35.50
19999;DHT22;10160;50.926;4.374;2024-01-11T12:29:30;23.80;35.30
19999;DHT22;10160;50.926;4.374;2024-01-11T12:31:57;23.80;35.40
19999;DHT22;10160;50.926;4.374;2024-01-11T12:34:24;23.90;34.80
19999;DHT22;10160;50.926;4.374;2024-01-11T12:36:50;24.20;34.60
19999;DHT22;10160;50.926;4.374;2024-01-11T12:39:19;24.10;34.50
19999;DHT22;10160;50.926;4.374;2024-01-11T12:41:50;24.00;34.60
19999;DHT22;10160;50.926;4.374;2024-01-11T12:44:20;23.80;34.30
19999;DHT22;10160;50.926;4.374;2024-01-11T12:46:48;23.50;34.70
19999;DHT22;10160;50.926;4.374;2024-01-11T12:49:15;23.60;34.50
19999;DHT22;10160;50.926;4.374;2024-01-11T12:51:40;23.70;34.10
19999;DHT22;10160;50.926;4.374;2024-01-11T12:54:11;23.40;34.30
19999;DHT22;10160;50.926;4.374;2024-01-11T12:56:41;23.50;34.50
19999;DHT22;10160;50.926;4.374;2024-01-11T12:59:10;23.70;34.30
19999;DHT22;10160;50.926;4.374;2024-01-11T13:01:39;23.20;33.90
19999;DHT22;10160;50.926;4.374;2024-01-11T13:04:05;23.10;33.80
19999;DHT22;10160;50.926;4.374;2024-01-11T13:06:33;23.00;33.90
19999;DHT22;10160;50.926;4.374;2024-01-11T13:09:00;23.20;34.40
19999;DHT22;10160;50.926;4.374;2024-01-11T13:11:26;22.90;34.40
19999;DHT22;10160;50.926;4.374;2024-01-11T13:13:53;22.80;34.40
19999;DHT22;10160;50.926;4.374;2024-01-11T13:16:19;23.00;34.30
19999;DHT22;10160;50.926;4.374;2024-01-11T13:18:46;23.30;34.30
19999;DHT22;10160;50.926;4.374;2024-01-11T13:21:12;23.40;33.90
19999;DHT22;10160;50.926;4.374;2024-01-11T13:23:38;23.50;33.80
19999;DHT22;10160;50.926;4.374;2024-01-11T13:26:05;23.70;34.10
19999;DHT22;10160;50.926;4.374;2024-01-11T13:28:31;23.70;33.70
19999;DHT22;10160;50.926;4.374;2024-01-11T13:30:57;23.50;33.30
19999;DHT22;10160;50.926;4.374;2024-01-11T13:33:23;23.50;33.50
19999;DHT22;10160;50.926;4.374;2024-01-11T13:35:49;23.70;33.40
19999;DHT22;10160;50.926;4.374;2024-01-11T13:38:15;23.80;33.40
19999;DHT22;10160;50.926;4.374;2024-01-11T13:40:41;23.70;33.70
19999;DHT22;10160;50.926;4.374;2024-01-11T13:43:09;23.40;33.20
19999;DHT22;10160;50.926;4.374;2024-01-11T13:45:35;23.40;33.40
19999;DHT22;10160;50.926;4.374;2024-01-11T13:48:02;23.10;33.20
19999;DHT22;10160;50.926;4.374;2024-01-11T13:50:28;22.60;33.00
19999;DHT22;10160;50.926;4.374;2024-01-11T13:52:54;22.20;33.30
19999;DHT22;10160;50.926;4.374;2024-01-11T13:55:20;22.30;33.80
19999;DHT22;10160;50.926;4.374;2024-01-11T13:57:47;22.30;33.20
19999;DHT22;10160;50.926;4.374;2024-01-11T14:00:14;22.10;33.60
19999;DHT22;10160;50.926;4.374;2024-01-11T14:02:40;21.70;33.30
19999;DHT22;10160;50.926;4.374;2024-01-11T14:05:08;21.70;33.90
19999;DHT22;10160;50.926;4.374;2024-01-11T14:07:39;20.70;34.10
19999;DHT22;10160;50.926;4.374;2024-01-11T14:10:06;20.40;35.00
19999;DHT22;10160;50.926;4.374;2024-01-11T14:12:34;20.20;35.40
19999;DHT22;10160;50.926;4.374;2024-01-11T14:15:04;20.20;35.10
19999;DHT22;10160;50.926;4.374;2024-01-11T14:17:31;20.00;35.20
19999;DHT22;10160;50.926;4.374;2024-01-11T14:19:57;19.60;36.30
19999;DHT22;10160;50.926;4.374;2024-01-11T14:22:23;19.30;35.90
19999;DHT22;10160;50.926;4.374;2024-01-11T14:24:49;18.90;35.80
19999;DHT22;10160;50.926;4.374;2024-01-11T14:27:15;18.50;36.10
19999;DHT22;10160;50.926;4.374;2024-01-11T14:29:41;17.90;36.80
19999;DHT22;10160;50.926;4.374;2024-01-11T14:32:06;17.80;37.00
19999;DHT22;10160;50.926;4.374;2024-01-11T14:34:32;17.70;36.90
19999;DHT22;10160;50.926;4.374;2024-01-11T14:36:58;17.70;37.40
19999;DHT22;10160;50.926;4.374;2024-01-11T14:39:24;17.50;37.40
19999;DHT22;10160;50.926;4.374;2024-01-11T14:41:52;17.50;36.90
19999;DHT22;10160;50.926;4.374;2024-01-11T14:44:18;17.20;37.30
19999;DHT22;10160;50.926;4.374;2024-01-11T14:46:43;16.80;37.70
19999;DHT22;10160;50.926;4.374;2024-01-11T14:49:09;16.80;37.90
19999;DHT22;10160;50.926;4.374;2024-01-11T14:51:35;16.70;37.80
19999;DHT22;10160;50.926;4.374;2024-01-11T14:54:03;16.70;38.10
19999;DHT22;10160;50.926;4.374;2024-01-11T14:56:30;16.30;37.50
19999;DHT22;10160;50.926;4.374;2024-01-11T14:58:56;16.10;37.70
19999;DHT22;10160;50.926;4.374;2024-01-11T15:01:22;15.70;38.20
19999;DHT22;10160;50.926;4.374;2024-01-11T15:03:47;15.40;38.30
19999;DHT22;10160;50.926;4.374;2024-01-11T15:06:13;15.30;38.80
19999;DHT22;10160;50.926;4.374;2024-01-11T15:08:39;15.00;39.70
19999;DHT22;10160;50.926;4.374;2024-01-11T15:11:05;14.60;40.10
19999;DHT22;10160;50.926;4.374;2024-01-11T15:13:31;13.90;40.80
19999;DHT22;10160;50.926;4.374;2024-01-11T15:15:57;13.50;41.80
19999;DHT22;10160;50.926;4.374;2024-01-11T15:18:22;13.20;42.60
19999;DHT22;10160;50.926;4.374;2024-01-11T15:20:48;12.80;44.30
19999;DHT22;10160;50.926;4.374;2024-01-11T15:23:14;12.20;45.00
19999;DHT22;10160;50.926;4.374;2024-01-11T15:25:39;11.20;46.40
19999;DHT22;10160;50.926;4.374;2024-01-11T15:28:05;10.20;48.60
19999;DHT22;10160;50.926;4.374;2024-01-11T15:30:31;9.50;50.70
19999;DHT22;10160;50.926;4.374;2024-01-11T15:32:57;9.10;52.60
19999;DHT22;10160;50.926;4.374;2024-01-11T15:35:23;8.60;54.70